createdAt,value
2019-04-29T00:00:54.354Z,2.35
2019-04-29T00:01:58.707Z,2.60
2019-04-29T00:03:02.968Z,2.75
2019-04-29T00:04:07.634Z,2.37
2019-04-29T00:05:12.276Z,2.40
2019-04-29T00:06:16.655Z,2.58
2019-04-29T00:07:21.003Z,3.05
2019-04-29T00:08:25.471Z,2.47
2019-04-29T00:09:31.585Z,2.60
2019-04-29T00:10:37.500Z,2.65
2019-04-29T00:11:41.823Z,2.60
2019-04-29T00:12:46.023Z,2.70
2019-04-29T00:13:50.207Z,2.27
2019-04-29T00:15:00.325Z,2.45
2019-04-29T00:16:23.851Z,3.00
2019-04-29T00:17:35.185Z,3.00
2019-04-29T00:18:57.244Z,2.30
2019-04-29T00:20:20.172Z,2.58
2019-04-29T00:21:24.979Z,2.10
2019-04-29T00:22:29.296Z,2.25
2019-04-29T00:23:33.570Z,2.30
2019-04-29T00:24:37.938Z,2.22
2019-04-29T00:25:42.239Z,2.42
2019-04-29T00:26:46.515Z,2.50
2019-04-29T00:27:50.762Z,2.30
2019-04-29T00:28:54.941Z,2.70
2019-04-29T00:29:59.340Z,2.25
2019-04-29T00:31:04.269Z,2.52
2019-04-29T00:32:09.037Z,2.20
2019-04-29T00:33:13.154Z,2.40
2019-04-29T00:34:17.361Z,2.70
2019-04-29T00:35:21.732Z,2.90
2019-04-29T00:36:28.560Z,2.75
2019-04-29T00:37:50.733Z,2.58
2019-04-29T00:39:24.375Z,2.70
2019-04-29T00:40:50.507Z,2.95
2019-04-29T00:42:10.272Z,3.00
2019-04-29T00:43:29.780Z,3.10
2019-04-29T00:44:34.005Z,2.90
2019-04-29T00:45:38.206Z,3.10
2019-04-29T00:46:42.346Z,2.40
2019-04-29T00:47:46.676Z,2.55
2019-04-29T00:48:50.963Z,2.70
2019-04-29T00:49:55.179Z,2.87
2019-04-29T00:50:59.399Z,2.65
2019-04-29T00:52:03.681Z,2.65
2019-04-29T00:53:08.061Z,2.55
2019-04-29T00:54:19.257Z,2.70
2019-04-29T00:55:25.586Z,2.90
2019-04-29T00:56:29.894Z,3.25
2019-04-29T00:57:34.225Z,2.72
2019-04-29T00:58:38.407Z,2.35
2019-04-29T00:59:42.703Z,2.85
2019-04-29T01:00:46.976Z,3.10
2019-04-29T01:01:51.285Z,2.50
2019-04-29T01:02:55.425Z,2.50
2019-04-29T01:03:59.935Z,2.20
2019-04-29T01:05:04.702Z,2.50
2019-04-29T01:06:09.167Z,2.35
2019-04-29T01:07:13.595Z,2.50
2019-04-29T01:08:17.977Z,2.27
2019-04-29T01:09:22.138Z,2.65
2019-04-29T01:10:26.403Z,2.55
2019-04-29T01:11:30.638Z,2.40
2019-04-29T01:12:36.633Z,2.30
2019-04-29T01:13:41.294Z,2.40
2019-04-29T01:14:45.544Z,2.60
2019-04-29T01:15:49.857Z,2.90
2019-04-29T01:16:54.269Z,2.90
2019-04-29T01:17:58.695Z,3.65
2019-04-29T01:19:04.002Z,3.62
2019-04-29T01:20:09.437Z,4.10
2019-04-29T01:21:13.812Z,3.87
2019-04-29T01:22:18.001Z,3.60
2019-04-29T01:23:22.335Z,3.20
2019-04-29T01:24:26.613Z,3.33
2019-04-29T01:25:30.833Z,3.75
2019-04-29T01:27:00.215Z,3.10
2019-04-29T01:28:11.373Z,3.40
2019-04-29T01:29:16.507Z,2.90
2019-04-29T01:31:06.099Z,3.02
2019-04-29T01:32:10.431Z,2.98
2019-04-29T01:33:14.681Z,3.42
2019-04-29T01:34:23.759Z,2.87
2019-04-29T01:35:28.090Z,3.10
2019-04-29T01:36:37.864Z,3.20
2019-04-29T01:37:43.289Z,3.45
2019-04-29T01:38:48.805Z,3.00
2019-04-29T01:40:04.598Z,3.45
2019-04-29T01:41:14.161Z,2.87
2019-04-29T01:42:21.910Z,3.10
2019-04-29T01:43:45.127Z,2.65
2019-04-29T01:44:49.375Z,2.40
2019-04-29T01:45:53.736Z,2.25
2019-04-29T01:46:58.239Z,2.00
2019-04-29T01:48:02.553Z,2.27
2019-04-29T01:49:06.715Z,2.52
2019-04-29T01:50:11.075Z,2.30
2019-04-29T01:51:15.409Z,2.80
2019-04-29T01:52:19.785Z,2.60
2019-04-29T01:53:24.443Z,2.85
2019-04-29T01:54:28.680Z,2.85
2019-04-29T01:55:32.855Z,2.50
2019-04-29T01:56:37.138Z,2.70
2019-04-29T01:57:41.340Z,2.20
2019-04-29T01:58:45.646Z,2.10
2019-04-29T01:59:50.181Z,2.80
2019-04-29T02:00:54.685Z,2.77
2019-04-29T02:01:59.109Z,2.20
2019-04-29T02:03:03.368Z,3.30
2019-04-29T02:04:07.717Z,2.52
2019-04-29T02:05:11.909Z,2.05
2019-04-29T02:06:16.041Z,1.85
2019-04-29T02:07:20.251Z,2.47
2019-04-29T02:08:24.567Z,2.47
2019-04-29T02:09:36.753Z,1.95
2019-04-29T02:10:41.097Z,2.20
2019-04-29T02:11:45.431Z,2.20
2019-04-29T02:12:49.841Z,2.50
2019-04-29T02:13:54.346Z,2.47
2019-04-29T02:14:58.517Z,2.42
2019-04-29T02:16:02.809Z,2.08
2019-04-29T02:17:07.138Z,2.80
2019-04-29T02:18:11.395Z,2.60
2019-04-29T02:19:15.611Z,2.33
2019-04-29T02:20:19.889Z,2.30
2019-04-29T02:21:24.069Z,2.58
2019-04-29T02:22:47.430Z,2.40
2019-04-29T02:23:58.054Z,2.20
2019-04-29T02:25:15.899Z,2.35
2019-04-29T02:26:20.354Z,2.60
2019-04-29T02:27:24.475Z,2.47
2019-04-29T02:28:28.598Z,2.40
2019-04-29T02:29:32.935Z,3.42
2019-04-29T02:30:43.116Z,2.47
2019-04-29T02:31:48.040Z,2.17
2019-04-29T02:32:52.395Z,2.20
2019-04-29T02:33:56.595Z,2.62
2019-04-29T02:35:00.990Z,2.50
2019-04-29T02:36:05.316Z,3.20
2019-04-29T02:37:11.237Z,2.40
2019-04-29T02:38:33.128Z,2.60
2019-04-29T02:39:42.882Z,2.45
2019-04-29T02:41:04.994Z,2.00
2019-04-29T02:42:28.644Z,2.15
2019-04-29T02:43:34.808Z,2.77
2019-04-29T02:44:39.175Z,2.98
2019-04-29T02:45:43.406Z,2.98
2019-04-29T02:46:47.650Z,2.00
2019-04-29T02:47:51.878Z,2.90
2019-04-29T02:48:56.140Z,2.20
2019-04-29T02:50:00.558Z,2.05
2019-04-29T02:51:04.977Z,3.00
2019-04-29T02:52:09.391Z,2.98
2019-04-29T02:53:13.779Z,2.75
2019-04-29T02:54:18.103Z,2.05
2019-04-29T02:55:35.485Z,2.55
2019-04-29T02:56:40.647Z,2.25
2019-04-29T02:58:03.895Z,2.80
2019-04-29T02:59:08.976Z,2.95
2019-04-29T03:00:39.081Z,2.50
2019-04-29T03:02:20.754Z,2.60
2019-04-29T03:03:32.313Z,1.98
2019-04-29T03:04:55.534Z,2.47
2019-04-29T03:06:01.601Z,2.70
2019-04-29T03:07:05.922Z,2.65
2019-04-29T03:08:10.262Z,2.40
2019-04-29T03:09:15.043Z,2.80
2019-04-29T03:10:19.300Z,2.52
2019-04-29T03:11:24.067Z,2.25
2019-04-29T03:12:28.389Z,2.58
2019-04-29T03:13:32.719Z,2.45
2019-04-29T03:14:38.107Z,2.47
2019-04-29T03:15:43.998Z,2.47
2019-04-29T03:16:49.067Z,2.45
2019-04-29T03:17:53.696Z,2.67
2019-04-29T03:19:02.577Z,2.30
2019-04-29T03:20:35.060Z,2.37
2019-04-29T03:21:52.378Z,2.50
2019-04-29T03:23:21.704Z,3.85
2019-04-29T03:24:26.179Z,2.10
2019-04-29T03:25:30.505Z,2.75
2019-04-29T03:26:34.845Z,2.85
2019-04-29T03:27:39.081Z,2.83
2019-04-29T03:28:43.332Z,2.15
2019-04-29T03:29:47.763Z,3.80
2019-04-29T03:30:52.166Z,2.70
2019-04-29T03:31:57.785Z,2.83
2019-04-29T03:33:01.953Z,2.87
2019-04-29T03:34:06.172Z,2.83
2019-04-29T03:35:10.677Z,3.47
2019-04-29T03:36:14.966Z,2.30
2019-04-29T03:37:19.236Z,2.20
2019-04-29T03:38:23.531Z,2.67
2019-04-29T03:39:27.866Z,2.87
2019-04-29T03:40:32.292Z,2.87
2019-04-29T03:41:36.594Z,2.75
2019-04-29T03:42:40.709Z,2.42
2019-04-29T03:43:44.857Z,3.05
2019-04-29T03:44:49.288Z,2.50
2019-04-29T03:45:53.849Z,2.35
2019-04-29T03:46:58.407Z,2.47
2019-04-29T03:48:02.682Z,2.75
2019-04-29T03:49:07.024Z,2.50
2019-04-29T03:50:11.560Z,2.22
2019-04-29T03:51:15.816Z,2.92
2019-04-29T03:52:20.129Z,2.40
2019-04-29T03:53:28.281Z,2.27
2019-04-29T03:54:30.929Z,2.30
2019-04-29T03:55:40.117Z,2.40
2019-04-29T03:56:42.963Z,2.20
2019-04-29T03:57:47.261Z,2.33
2019-04-29T03:58:51.527Z,2.70
2019-04-29T03:59:57.054Z,2.62
2019-04-29T04:01:15.417Z,2.25
2019-04-29T04:02:41.722Z,2.30
2019-04-29T04:03:53.556Z,2.40
2019-04-29T04:05:11.483Z,2.60
2019-04-29T04:06:33.549Z,2.60
2019-04-29T04:07:43.654Z,2.12
2019-04-29T04:09:05.973Z,2.72
2019-04-29T04:10:03.774Z,2.62
2019-04-29T04:11:08.026Z,2.40
2019-04-29T04:12:12.467Z,2.12
2019-04-29T04:13:16.792Z,2.60
2019-04-29T04:14:21.174Z,2.75
2019-04-29T04:15:25.829Z,2.65
2019-04-29T04:16:49.137Z,2.60
2019-04-29T04:18:07.679Z,2.10
2019-04-29T04:19:11.947Z,3.00
2019-04-29T04:20:16.226Z,2.40
2019-04-29T04:21:20.564Z,2.47
2019-04-29T04:22:24.841Z,2.60
2019-04-29T04:23:29.203Z,2.17
2019-04-29T04:24:33.461Z,2.42
2019-04-29T04:25:37.916Z,2.30
2019-04-29T04:26:42.123Z,2.65
2019-04-29T04:27:46.835Z,2.42
2019-04-29T04:28:51.002Z,2.10
2019-04-29T04:29:55.320Z,2.00
2019-04-29T04:30:59.736Z,2.45
2019-04-29T04:32:04.153Z,2.80
2019-04-29T04:33:08.589Z,2.75
2019-04-29T04:34:12.982Z,3.00
2019-04-29T04:35:17.319Z,2.12
2019-04-29T04:36:21.455Z,3.15
2019-04-29T04:37:25.782Z,2.55
2019-04-29T04:38:29.939Z,2.75
2019-04-29T04:39:35.971Z,2.40
2019-04-29T04:40:44.560Z,2.50
2019-04-29T04:41:48.905Z,2.70
2019-04-29T04:42:53.104Z,2.37
2019-04-29T04:43:57.323Z,3.17
2019-04-29T04:45:01.597Z,2.70
2019-04-29T04:46:05.970Z,2.80
2019-04-29T04:47:10.112Z,2.52
2019-04-29T04:48:14.312Z,3.30
2019-04-29T04:49:18.514Z,2.42
2019-04-29T04:50:22.681Z,3.15
2019-04-29T04:51:27.158Z,3.00
2019-04-29T04:52:31.473Z,2.50
2019-04-29T04:53:35.784Z,2.70
2019-04-29T04:54:40.090Z,2.75
2019-04-29T04:55:45.769Z,2.70
2019-04-29T04:56:50.366Z,2.85
2019-04-29T04:57:55.003Z,2.72
2019-04-29T04:58:59.247Z,2.62
2019-04-29T05:00:05.575Z,3.20
2019-04-29T05:01:09.669Z,3.05
2019-04-29T05:02:13.883Z,2.40
2019-04-29T05:03:18.069Z,2.90
2019-04-29T05:04:22.359Z,2.45
2019-04-29T05:05:26.543Z,2.02
2019-04-29T05:06:30.885Z,3.10
2019-04-29T05:07:35.167Z,2.98
2019-04-29T05:08:39.827Z,3.10
2019-04-29T05:09:43.984Z,2.80
2019-04-29T05:10:48.135Z,3.08
2019-04-29T05:11:52.249Z,2.92
2019-04-29T05:12:56.519Z,2.95
2019-04-29T05:14:00.942Z,3.60
2019-04-29T05:15:05.432Z,2.70
2019-04-29T05:16:09.589Z,2.87
2019-04-29T05:17:13.925Z,3.10
2019-04-29T05:18:18.259Z,3.37
2019-04-29T05:19:22.443Z,3.50
2019-04-29T05:20:26.653Z,3.17
2019-04-29T05:21:30.885Z,2.60
2019-04-29T05:22:35.199Z,3.40
2019-04-29T05:23:41.626Z,3.02
2019-04-29T05:24:45.699Z,3.55
2019-04-29T05:25:50.020Z,3.17
2019-04-29T05:26:54.351Z,3.47
2019-04-29T05:27:58.741Z,3.10
2019-04-29T05:29:03.078Z,4.00
2019-04-29T05:30:07.887Z,3.60
2019-04-29T05:31:12.207Z,2.80
2019-04-29T05:32:16.513Z,3.30
2019-04-29T05:33:20.808Z,3.12
2019-04-29T05:34:26.787Z,3.60
2019-04-29T05:35:40.107Z,3.50
2019-04-29T05:37:05.172Z,3.40
2019-04-29T05:38:43.901Z,2.65
2019-04-29T05:39:48.267Z,3.20
2019-04-29T05:40:52.766Z,2.87
2019-04-29T05:41:57.097Z,3.50
2019-04-29T05:43:01.331Z,2.95
2019-04-29T05:44:11.840Z,3.30
2019-04-29T05:45:24.142Z,3.75
2019-04-29T05:46:41.529Z,2.80
2019-04-29T05:47:57.097Z,2.80
2019-04-29T05:49:02.515Z,3.02
2019-04-29T05:50:40.028Z,3.15
2019-04-29T05:52:06.067Z,3.08
2019-04-29T05:53:23.798Z,3.90
2019-04-29T05:54:31.720Z,3.00
2019-04-29T05:55:34.302Z,3.40
2019-04-29T05:56:38.542Z,3.00
2019-04-29T05:57:42.821Z,3.37
2019-04-29T05:58:47.044Z,4.00
2019-04-29T05:59:51.507Z,3.50
2019-04-29T06:00:59.971Z,3.50
2019-04-29T06:02:04.379Z,3.50
2019-04-29T06:03:08.639Z,4.03
2019-04-29T06:04:16.442Z,3.42
2019-04-29T06:05:18.866Z,3.77
2019-04-29T06:06:23.138Z,3.95
2019-04-29T06:07:27.421Z,3.30
2019-04-29T06:08:34.404Z,4.00
2019-04-29T06:09:37.660Z,4.10
2019-04-29T06:10:42.206Z,4.00
2019-04-29T06:11:46.645Z,3.83
2019-04-29T06:12:50.832Z,4.65
2019-04-29T06:13:55.150Z,4.35
2019-04-29T06:14:59.402Z,4.97
2019-04-29T06:16:03.629Z,3.95
2019-04-29T06:17:07.917Z,3.80
2019-04-29T06:18:12.308Z,3.70
2019-04-29T06:19:16.637Z,4.10
2019-04-29T06:20:22.888Z,4.00
2019-04-29T06:21:26.867Z,4.12
2019-04-29T06:22:31.377Z,4.20
2019-04-29T06:23:35.661Z,4.30
2019-04-29T06:24:41.042Z,4.30
2019-04-29T06:25:46.105Z,4.40
2019-04-29T06:26:50.367Z,4.65
2019-04-29T06:27:54.520Z,4.12
2019-04-29T06:28:58.825Z,4.75
2019-04-29T06:30:04.895Z,4.20
2019-04-29T06:31:09.286Z,4.50
2019-04-29T06:32:13.607Z,4.17
2019-04-29T06:33:17.871Z,4.15
2019-04-29T06:34:22.251Z,5.58
2019-04-29T06:35:26.533Z,4.75
2019-04-29T06:36:30.829Z,4.40
2019-04-29T06:37:34.969Z,4.35
2019-04-29T06:38:39.198Z,5.12
2019-04-29T06:39:43.967Z,5.33
2019-04-29T06:40:48.255Z,4.92
2019-04-29T06:41:52.373Z,5.47
2019-04-29T06:42:56.685Z,5.15
2019-04-29T06:44:06.266Z,5.22
2019-04-29T06:45:07.326Z,5.47
2019-04-29T06:46:11.525Z,5.45
2019-04-29T06:47:17.082Z,5.10
2019-04-29T06:48:21.866Z,5.03
2019-04-29T06:49:26.040Z,5.53
2019-04-29T06:50:30.338Z,5.47
2019-04-29T06:51:34.499Z,4.95
2019-04-29T06:52:38.704Z,5.80
2019-04-29T06:53:42.980Z,7.12
2019-04-29T06:54:47.687Z,6.35
2019-04-29T06:55:52.401Z,5.92
2019-04-29T06:56:56.755Z,5.87
2019-04-29T06:58:01.063Z,6.05
2019-04-29T06:59:07.562Z,5.50
2019-04-29T07:00:11.763Z,5.97
2019-04-29T07:01:15.961Z,5.65
2019-04-29T07:02:20.327Z,6.62
2019-04-29T07:03:25.410Z,6.58
2019-04-29T07:04:36.968Z,6.40
2019-04-29T07:05:36.792Z,6.60
2019-04-29T07:06:41.057Z,5.90
2019-04-29T07:07:45.218Z,5.87
2019-04-29T07:08:49.487Z,6.00
2019-04-29T07:09:56.825Z,6.15
2019-04-29T07:11:01.009Z,5.67
2019-04-29T07:12:08.262Z,6.00
2019-04-29T07:13:12.078Z,6.20
2019-04-29T07:14:16.371Z,7.05
2019-04-29T07:15:20.795Z,6.00
2019-04-29T07:16:27.242Z,5.75
2019-04-29T07:17:31.018Z,6.85
2019-04-29T07:18:35.263Z,5.83
2019-04-29T07:19:39.625Z,5.58
2019-04-29T07:20:43.925Z,6.70
2019-04-29T07:21:51.493Z,6.90
2019-04-29T07:22:56.435Z,6.37
2019-04-29T07:23:59.979Z,6.50
2019-04-29T07:25:04.493Z,8.20
2019-04-29T07:26:08.891Z,6.47
2019-04-29T07:27:13.153Z,6.90
2019-04-29T07:28:18.301Z,6.35
2019-04-29T07:29:29.662Z,6.97
2019-04-29T07:30:29.564Z,6.95
2019-04-29T07:31:35.177Z,6.80
2019-04-29T07:32:42.183Z,6.47
2019-04-29T07:33:45.601Z,7.08
2019-04-29T07:34:49.935Z,8.03
2019-04-29T07:35:54.286Z,7.00
2019-04-29T07:36:59.445Z,6.37
2019-04-29T07:38:04.484Z,7.45
2019-04-29T07:39:09.916Z,8.05
2019-04-29T07:40:14.500Z,7.42
2019-04-29T07:41:20.670Z,6.53
2019-04-29T07:42:31.895Z,6.35
2019-04-29T07:43:30.687Z,5.85
2019-04-29T07:44:44.483Z,6.15
2019-04-29T07:46:05.431Z,5.67
2019-04-29T07:47:09.985Z,6.37
2019-04-29T07:48:14.217Z,6.62
2019-04-29T07:49:18.938Z,6.12
2019-04-29T07:50:26.608Z,5.60
2019-04-29T07:51:29.776Z,5.95
2019-04-29T07:52:34.055Z,6.65
2019-04-29T07:53:45.315Z,7.22
2019-04-29T07:54:47.725Z,6.95
2019-04-29T07:55:50.389Z,6.22
2019-04-29T07:56:54.613Z,6.65
2019-04-29T07:57:58.901Z,7.55
2019-04-29T07:59:04.597Z,7.42
2019-04-29T08:00:12.927Z,7.37
2019-04-29T08:01:19.904Z,6.35
2019-04-29T08:02:22.433Z,6.22
2019-04-29T08:03:26.935Z,6.58
2019-04-29T08:04:31.408Z,6.60
2019-04-29T08:05:35.661Z,5.87
2019-04-29T08:06:42.713Z,5.80
2019-04-29T08:07:47.365Z,6.80
2019-04-29T08:08:55.010Z,7.83
2019-04-29T08:09:58.083Z,6.20
2019-04-29T08:11:02.377Z,7.80
2019-04-29T08:12:06.651Z,6.15
2019-04-29T08:13:12.914Z,7.50
2019-04-29T08:14:18.781Z,6.17
2019-04-29T08:15:23.047Z,6.37
2019-04-29T08:16:27.241Z,6.60
2019-04-29T08:17:31.452Z,7.47
2019-04-29T08:18:35.748Z,6.87
2019-04-29T08:19:40.027Z,6.70
2019-04-29T08:20:44.663Z,6.10
2019-04-29T08:21:49.809Z,7.55
2019-04-29T08:22:58.363Z,7.20
2019-04-29T08:24:01.216Z,7.62
2019-04-29T08:25:05.782Z,6.47
2019-04-29T08:26:10.139Z,6.40
2019-04-29T08:27:14.442Z,6.50
2019-04-29T08:28:18.723Z,7.22
2019-04-29T08:29:22.976Z,7.45
2019-04-29T08:30:27.204Z,6.55
2019-04-29T08:31:31.416Z,7.37
2019-04-29T08:32:36.381Z,6.28
2019-04-29T08:33:42.421Z,7.20
2019-04-29T08:34:47.817Z,7.75
2019-04-29T08:35:52.131Z,6.92
2019-04-29T08:36:56.508Z,6.70
2019-04-29T08:38:00.729Z,6.62
2019-04-29T08:39:08.825Z,7.25
2019-04-29T08:40:16.254Z,6.45
2019-04-29T08:41:20.949Z,7.95
2019-04-29T08:42:28.551Z,6.45
2019-04-29T08:43:57.841Z,6.37
2019-04-29T08:45:10.687Z,7.42
2019-04-29T08:46:18.996Z,7.33
2019-04-29T08:47:30.520Z,6.85
2019-04-29T08:48:32.163Z,7.35
2019-04-29T08:49:36.519Z,7.60
2019-04-29T08:50:41.145Z,7.10
2019-04-29T08:51:45.398Z,6.45
2019-04-29T08:52:49.705Z,7.28
2019-04-29T08:53:53.952Z,6.20
2019-04-29T08:54:58.188Z,6.37
2019-04-29T08:56:05.553Z,7.10
2019-04-29T08:57:08.581Z,7.00
2019-04-29T08:58:12.962Z,7.35
2019-04-29T08:59:20.686Z,6.85
2019-04-29T09:00:23.593Z,6.62
2019-04-29T09:01:29.172Z,7.20
2019-04-29T09:02:35.589Z,6.33
2019-04-29T09:03:40.920Z,6.83
2019-04-29T09:04:53.496Z,7.90
2019-04-29T09:06:04.241Z,7.58
2019-04-29T09:06:57.391Z,7.10
2019-04-29T09:08:01.615Z,7.80
2019-04-29T09:09:10.472Z,7.40
2019-04-29T09:10:13.410Z,7.55
2019-04-29T09:11:17.770Z,8.38
2019-04-29T09:12:24.194Z,7.58
2019-04-29T09:13:28.233Z,6.40
2019-04-29T09:14:32.451Z,7.03
2019-04-29T09:15:36.660Z,7.60
2019-04-29T09:16:40.819Z,7.50
2019-04-29T09:17:45.053Z,6.53
2019-04-29T09:18:49.393Z,6.28
2019-04-29T09:19:53.665Z,6.10
2019-04-29T09:20:57.935Z,6.92
2019-04-29T09:22:04.446Z,7.28
2019-04-29T09:23:11.521Z,6.85
2019-04-29T09:24:15.779Z,7.22
2019-04-29T09:25:41.917Z,6.15
2019-04-29T09:26:54.286Z,5.62
2019-04-29T09:27:59.435Z,6.50
2019-04-29T09:29:22.965Z,6.17
2019-04-29T09:30:27.649Z,6.78
2019-04-29T09:31:31.927Z,6.35
2019-04-29T09:32:38.121Z,5.78
2019-04-29T09:33:44.125Z,5.75
2019-04-29T09:34:48.613Z,6.65
2019-04-29T09:35:52.800Z,6.47
2019-04-29T09:36:57.147Z,5.33
2019-04-29T09:38:01.433Z,5.87
2019-04-29T09:39:06.115Z,4.75
2019-04-29T09:40:12.879Z,5.70
2019-04-29T09:41:42.148Z,4.75
2019-04-29T09:43:26.006Z,5.65
2019-04-29T09:44:58.603Z,5.53
2019-04-29T09:46:09.043Z,6.42
2019-04-29T09:47:14.147Z,5.47
2019-04-29T09:48:18.831Z,5.97
2019-04-29T09:49:23.051Z,5.25
2019-04-29T09:50:28.586Z,5.20
2019-04-29T09:51:32.932Z,5.70
2019-04-29T09:52:37.468Z,6.22
2019-04-29T09:53:41.714Z,4.90
2019-04-29T09:54:45.899Z,7.72
2019-04-29T09:55:50.453Z,5.75
2019-04-29T09:56:55.085Z,8.10
2019-04-29T09:57:59.269Z,6.78
2019-04-29T09:59:24.044Z,5.87
2019-04-29T10:00:59.761Z,6.42
2019-04-29T10:02:26.344Z,7.30
2019-04-29T10:03:56.889Z,5.80
2019-04-29T10:05:15.368Z,7.30
2019-04-29T10:06:23.024Z,7.53
2019-04-29T10:07:27.527Z,6.53
2019-04-29T10:08:31.739Z,6.58
2019-04-29T10:09:36.009Z,6.45
2019-04-29T10:10:40.241Z,6.25
2019-04-29T10:11:44.469Z,6.45
2019-04-29T10:12:48.686Z,6.87
2019-04-29T10:13:53.162Z,6.15
2019-04-29T10:14:57.511Z,6.30
2019-04-29T10:16:15.163Z,6.67
2019-04-29T10:17:26.635Z,5.25
2019-04-29T10:18:47.769Z,6.45
2019-04-29T10:20:11.047Z,5.90
2019-04-29T10:21:16.587Z,5.90
2019-04-29T10:22:22.193Z,5.55
2019-04-29T10:23:26.470Z,5.50
2019-04-29T10:24:30.677Z,4.72
2019-04-29T10:25:35.289Z,5.08
2019-04-29T10:26:39.609Z,5.17
2019-04-29T10:27:43.867Z,4.53
2019-04-29T10:28:55.351Z,5.20
2019-04-29T10:29:59.660Z,4.60
2019-04-29T10:31:05.688Z,4.60
2019-04-29T10:32:10.003Z,4.80
2019-04-29T10:33:17.675Z,5.37
2019-04-29T10:34:21.209Z,5.50
2019-04-29T10:35:25.448Z,4.75
2019-04-29T10:36:29.584Z,5.45
2019-04-29T10:37:33.831Z,5.92
2019-04-29T10:38:40.587Z,5.30
2019-04-29T10:39:52.871Z,5.35
2019-04-29T10:41:05.737Z,5.03
2019-04-29T10:42:10.589Z,5.35
2019-04-29T10:43:53.822Z,6.22
2019-04-29T10:45:13.646Z,5.95
2019-04-29T10:46:35.813Z,5.50
2019-04-29T10:47:58.867Z,5.37
2019-04-29T10:49:11.364Z,5.75
2019-04-29T10:50:24.637Z,5.17
2019-04-29T10:51:28.956Z,5.30
2019-04-29T10:52:34.566Z,5.03
2019-04-29T10:53:39.643Z,5.67
2019-04-29T10:54:44.062Z,5.97
2019-04-29T10:55:48.389Z,5.00
2019-04-29T10:56:52.887Z,5.20
2019-04-29T10:57:57.208Z,5.45
2019-04-29T10:59:04.591Z,6.15
2019-04-29T11:00:32.496Z,5.10
2019-04-29T11:02:34.190Z,5.08
2019-04-29T11:03:38.569Z,5.50
2019-04-29T11:04:42.940Z,5.58
2019-04-29T11:06:00.278Z,5.75
2019-04-29T11:06:55.752Z,5.72
2019-04-29T11:08:04.662Z,6.05
2019-04-29T11:09:36.399Z,4.55
2019-04-29T11:10:40.761Z,4.92
2019-04-29T11:11:45.757Z,4.97
2019-04-29T11:12:50.016Z,4.55
2019-04-29T11:13:57.649Z,5.45
2019-04-29T11:15:01.734Z,5.00
2019-04-29T11:16:06.859Z,5.00
2019-04-29T11:17:16.552Z,5.72
2019-04-29T11:18:18.180Z,5.30
2019-04-29T11:19:22.917Z,4.55
2019-04-29T11:20:27.607Z,4.75
2019-04-29T11:21:31.937Z,4.90
2019-04-29T11:22:40.671Z,5.65
2019-04-29T11:23:57.986Z,5.40
2019-04-29T11:25:21.247Z,5.22
2019-04-29T11:27:10.711Z,5.20
2019-04-29T11:28:02.960Z,5.00
2019-04-29T11:29:09.348Z,4.72
2019-04-29T11:30:16.431Z,4.70
2019-04-29T11:31:20.849Z,4.67
2019-04-29T11:32:37.862Z,5.17
2019-04-29T11:34:01.071Z,4.70
2019-04-29T11:35:19.638Z,4.55
2019-04-29T11:36:25.329Z,6.12
2019-04-29T11:37:30.013Z,5.15
2019-04-29T11:38:38.217Z,4.45
2019-04-29T11:39:40.551Z,5.65
2019-04-29T11:40:45.821Z,5.00
2019-04-29T11:41:54.276Z,5.30
2019-04-29T11:42:56.244Z,5.33
2019-04-29T11:44:00.781Z,4.90
2019-04-29T11:45:09.121Z,4.70
2019-04-29T11:46:14.453Z,4.58
2019-04-29T11:47:20.860Z,5.08
2019-04-29T11:48:25.827Z,5.60
2019-04-29T11:49:38.992Z,5.15
2019-04-29T11:50:49.995Z,5.10
2019-04-29T11:52:09.329Z,5.20
2019-04-29T11:53:01.297Z,5.33
2019-04-29T11:54:08.352Z,5.75
2019-04-29T11:55:14.067Z,5.40
2019-04-29T11:56:17.945Z,5.33
2019-04-29T11:57:41.404Z,4.85
2019-04-29T11:58:55.723Z,5.37
2019-04-29T12:00:17.677Z,5.75
2019-04-29T12:01:51.817Z,4.60
2019-04-29T12:02:56.180Z,4.75
2019-04-29T12:04:02.210Z,4.90
2019-04-29T12:05:31.975Z,5.05
2019-04-29T12:06:36.323Z,4.62
2019-04-29T12:07:40.733Z,5.60
2019-04-29T12:08:48.045Z,5.20
2019-04-29T12:09:51.755Z,5.28
2019-04-29T12:11:06.544Z,5.30
2019-04-29T12:12:02.090Z,5.22
2019-04-29T12:13:08.995Z,5.10
2019-04-29T12:14:28.984Z,4.28
2019-04-29T12:15:45.085Z,4.15
2019-04-29T12:17:06.623Z,4.47
2019-04-29T12:18:19.884Z,4.22
2019-04-29T12:19:27.817Z,5.30
2019-04-29T12:20:40.477Z,5.05
2019-04-29T12:21:45.361Z,4.78
2019-04-29T12:22:49.586Z,4.80
2019-04-29T12:23:54.967Z,3.95
2019-04-29T12:24:59.259Z,4.05
2019-04-29T12:26:05.004Z,4.60
2019-04-29T12:27:14.735Z,4.10
2019-04-29T12:28:19.359Z,4.20
2019-04-29T12:29:23.178Z,4.12
2019-04-29T12:30:34.606Z,3.92
2019-04-29T12:31:49.432Z,3.90
2019-04-29T12:33:15.253Z,3.85
2019-04-29T12:34:37.261Z,4.45
2019-04-29T12:35:51.985Z,4.75
2019-04-29T12:36:56.822Z,4.37
2019-04-29T12:38:20.471Z,3.72
2019-04-29T12:39:59.731Z,4.42
2019-04-29T12:41:29.805Z,4.35
2019-04-29T12:42:55.749Z,4.50
2019-04-29T12:44:06.281Z,3.80
2019-04-29T12:45:24.036Z,4.47
2019-04-29T12:46:47.013Z,4.30
2019-04-29T12:47:51.445Z,4.42
2019-04-29T12:48:55.755Z,4.40
2019-04-29T12:49:59.998Z,4.65
2019-04-29T12:51:04.237Z,4.55
2019-04-29T12:52:08.568Z,4.15
2019-04-29T12:53:12.951Z,3.65
2019-04-29T12:54:17.188Z,4.25
2019-04-29T12:55:43.441Z,4.10
2019-04-29T12:56:36.329Z,3.72
2019-04-29T12:57:40.551Z,4.10
2019-04-29T12:58:50.218Z,3.67
2019-04-29T12:59:50.733Z,4.03
2019-04-29T13:01:01.254Z,4.15
2019-04-29T13:02:14.176Z,3.70
2019-04-29T13:03:41.095Z,4.33
2019-04-29T13:05:03.249Z,3.72
2019-04-29T13:06:12.871Z,3.40
2019-04-29T13:07:39.090Z,3.10
2019-04-29T13:08:46.509Z,3.62
2019-04-29T13:09:51.549Z,3.65
2019-04-29T13:10:58.637Z,3.75
2019-04-29T13:12:17.677Z,3.40
2019-04-29T13:13:09.360Z,3.35
2019-04-29T13:14:13.639Z,2.95
2019-04-29T13:15:34.472Z,3.20
2019-04-29T13:16:57.078Z,3.60
2019-04-29T13:18:13.877Z,3.83
2019-04-29T13:19:20.555Z,3.72
2019-04-29T13:20:24.501Z,3.60
2019-04-29T13:21:28.791Z,4.30
2019-04-29T13:22:33.090Z,4.10
2019-04-29T13:23:55.024Z,3.65
2019-04-29T13:24:44.450Z,3.75
2019-04-29T13:25:50.905Z,3.60
2019-04-29T13:26:54.861Z,3.60
2019-04-29T13:28:03.990Z,3.95
2019-04-29T13:29:05.278Z,4.00
2019-04-29T13:30:15.079Z,3.40
2019-04-29T13:31:20.102Z,4.72
2019-04-29T13:32:28.094Z,3.85
2019-04-29T13:33:29.399Z,3.75
2019-04-29T13:34:38.086Z,4.05
2019-04-29T13:35:48.607Z,4.40
2019-04-29T13:37:06.134Z,3.77
2019-04-29T13:37:54.296Z,3.33
2019-04-29T13:38:58.649Z,4.28
2019-04-29T13:40:02.933Z,3.77
2019-04-29T13:41:13.557Z,3.87
2019-04-29T13:42:15.817Z,4.53
2019-04-29T13:43:20.714Z,5.75
2019-04-29T13:44:25.251Z,3.80
2019-04-29T13:45:37.144Z,3.60
2019-04-29T13:47:00.563Z,4.53
2019-04-29T13:48:23.991Z,4.45
2019-04-29T13:49:35.989Z,4.10
2019-04-29T13:50:50.251Z,4.30
2019-04-29T13:51:55.483Z,4.50
2019-04-29T13:52:59.761Z,3.95
2019-04-29T13:54:06.092Z,3.60
2019-04-29T13:55:17.969Z,4.03
2019-04-29T13:56:32.641Z,4.35
2019-04-29T13:57:22.115Z,4.72
2019-04-29T13:58:27.028Z,4.40
2019-04-29T13:59:42.017Z,4.40
2019-04-29T14:01:00.080Z,4.53
2019-04-29T14:02:12.740Z,4.47
2019-04-29T14:03:27.901Z,4.00
2019-04-29T14:04:35.713Z,4.28
2019-04-29T14:05:41.720Z,4.65
2019-04-29T14:06:56.715Z,5.47
2019-04-29T14:07:54.011Z,4.90
2019-04-29T14:08:59.966Z,4.83
2019-04-29T14:10:05.489Z,4.67
2019-04-29T14:11:09.811Z,5.20
2019-04-29T14:12:47.276Z,5.03
2019-04-29T14:13:21.055Z,4.90
2019-04-29T14:14:28.268Z,4.95
2019-04-29T14:15:33.906Z,5.00
2019-04-29T14:16:38.072Z,5.30
2019-04-29T14:17:42.277Z,5.40
2019-04-29T14:18:48.206Z,5.10
2019-04-29T14:19:52.865Z,4.85
2019-04-29T14:20:57.097Z,5.10
2019-04-29T14:22:01.353Z,5.60
2019-04-29T14:23:05.680Z,5.00
2019-04-29T14:24:10.281Z,4.47
2019-04-29T14:25:14.500Z,5.50
2019-04-29T14:26:18.685Z,4.78
2019-04-29T14:27:25.291Z,5.37
2019-04-29T14:28:28.855Z,5.72
2019-04-29T14:29:33.217Z,5.00
2019-04-29T14:30:39.173Z,5.53
2019-04-29T14:31:43.555Z,4.17
2019-04-29T14:32:49.801Z,4.95
2019-04-29T14:34:02.729Z,4.72
2019-04-29T14:35:13.661Z,4.28
2019-04-29T14:36:20.007Z,4.83
2019-04-29T14:37:25.554Z,4.28
2019-04-29T14:38:30.059Z,3.80
2019-04-29T14:39:37.196Z,3.77
2019-04-29T14:40:42.860Z,3.80
2019-04-29T14:41:54.855Z,4.20
2019-04-29T14:43:27.116Z,3.70
2019-04-29T14:44:40.812Z,4.00
2019-04-29T14:46:15.681Z,5.15
2019-04-29T14:47:36.937Z,4.35
2019-04-29T14:48:45.517Z,4.00
2019-04-29T14:49:55.170Z,3.47
2019-04-29T14:50:59.557Z,4.00
2019-04-29T14:52:08.177Z,4.28
2019-04-29T14:53:09.869Z,3.40
2019-04-29T14:54:14.088Z,3.98
2019-04-29T14:55:20.094Z,3.90
2019-04-29T14:56:24.573Z,4.00
2019-04-29T14:57:28.897Z,4.70
2019-04-29T14:58:33.196Z,4.30
2019-04-29T14:59:37.985Z,4.78
2019-04-29T15:01:02.059Z,4.50
2019-04-29T15:02:17.149Z,4.25